Flight Track Log - Related Links

Times and Time Zones

All times are in EDT time to prevent confusion due to time zone crossing. See the FLG3432 flight status page for this flight to view local times or setup timezone preferences in your user account.

Time Position Orientation Groundspeed Altitude Reporting Facility
EDT Latitude Longitude Course Direction KTS MPH feet Rate Location/Type
Thu 06:31:19 AM 42.7736 -73.8064 284° West 179 206 1,300  Level Boston Center
Thu 06:31:38 AM 42.7903 -73.8094 352° North 182 209 2,200 2,203 Climbing Boston Center
Thu 06:32:38 AM 42.8333 -73.8642 317° Northwest 215 247 4,200 2,000 Climbing Boston Center
Thu 06:33:20 AM 42.8744 -73.9189 316° Northwest 269 310 5,600 2,235 Climbing Boston Center
Thu 06:34:00 AM 42.8391 -74.3678 283° West  Level FlightAware Approximate
Thu 06:34:20 AM 42.9194 -73.9767 317° Northwest 278 320 8,000  Level Boston Center
Thu 06:35:00 AM 42.8632 -74.5122 283° West  Level FlightAware Approximate
Thu 06:35:20 AM 42.9808 -74.0633 314° West 284 327 10,700  Level Boston Center
Thu 06:36:00 AM 42.8987 -74.6503 284° West  Level FlightAware Approximate
Thu 06:36:20 AM 43.0461 -74.1589 313° West 321 369 12,300  Level Boston Center
Thu 06:37:20 AM 43.0922 -74.2711 299° West 343 395 14,500 2,150 Climbing Boston Center
Thu 06:38:20 AM 43.0981 -74.4164 273° West 369 425 16,600 1,800 Climbing Boston Center
Thu 06:39:20 AM 43.1039 -74.5644 273° West 388 447 18,100 1,350 Climbing Boston Center
Thu 06:40:20 AM 43.1114 -74.7183 274° West 398 458 19,300 1,500 Climbing Boston Center
Thu 06:41:20 AM 43.1164 -74.8719 273° West 408 470 21,100 1,800 Climbing Boston Center
Thu 06:42:20 AM 43.1214 -75.0289 273° West 408 470 22,900 1,600 Climbing Boston Center
Thu 06:43:20 AM 43.1281 -75.1883 273° West 413 475 24,300 1,350 Climbing Boston Center
Thu 06:44:20 AM 43.1325 -75.3481 272° West 424 488 25,600 1,250 Climbing Boston Center
Thu 06:45:20 AM 43.1406 -75.5133 274° West 429 494 26,800 1,150 Climbing Boston Center
Thu 06:46:20 AM 43.1464 -75.6817 273° West 435 501 27,900 1,150 Climbing Boston Center
Thu 06:47:20 AM 43.1517 -75.8528 272° West 441 507 29,100 1,300 Climbing Boston Center
Thu 06:48:20 AM 43.1569 -76.0239 272° West 451 519 30,500 1,316 Climbing Boston Center
Thu 06:49:55 AM 43.1500 -76.2500 268° West 440 506 32,500 1,208 Climbing Toronto Center
Thu 06:50:59 AM 43.1392 -76.4631 266° West 434 499 33,700 726 Climbing Cleveland Center
Thu 06:51:59 AM 43.1242 -76.6292 263° West 439 505 34,000 150 Climbing Cleveland Center
Thu 06:52:59 AM 43.1106 -76.7808 263° West 445 512 34,000  Level Cleveland Center
Thu 06:53:59 AM 43.0992 -76.9492 265° West 445 512 34,000  Level Cleveland Center
Thu 06:54:59 AM 43.1194 -77.1358 279° West 445 512 34,000  Level Cleveland Center
Thu 06:55:59 AM 43.1389 -77.3025 279° West 445 512 34,000  Level Cleveland Center
Thu 06:56:59 AM 43.1583 -77.4694 279° West 445 512 34,000  Level Cleveland Center
Thu 06:57:59 AM 43.1792 -77.6364 280° West 445 512 34,000  Level Cleveland Center
Thu 06:58:59 AM 43.2000 -77.8008 280° West 445 512 34,000  Level Cleveland Center
Thu 06:59:59 AM 43.2289 -77.9675 283° West 445 512 34,000  Level Cleveland Center
Thu 07:00:59 AM 43.2575 -78.1317 284° West 445 512 34,000  Level Cleveland Center
Thu 07:01:59 AM 43.2881 -78.2958 284° West 445 512 34,000  Level Cleveland Center
Thu 07:02:59 AM 43.3161 -78.4603 283° West 445 512 34,000  Level Cleveland Center
Thu 07:03:59 AM 43.3439 -78.6250 283° West 445 512 34,000  Level Cleveland Center
Thu 07:04:59 AM 43.3717 -78.7869 283° West 450 518 34,000  Level Cleveland Center
Thu 07:05:59 AM 43.4011 -78.9575 283° West 450 518 34,000  Level Cleveland Center
Thu 07:06:55 AM 43.4167 -79.0833 280° West 440 506 34,000  Level Toronto Center
Thu 07:07:55 AM 43.4500 -79.2667 284° West 440 506 34,000  Level Toronto Center
Thu 07:08:55 AM 43.4667 -79.4333 278° West 440 506 34,000  Level Toronto Center
Thu 07:09:55 AM 43.5000 -79.5833 287° West 440 506 34,000  Level Toronto Center
Thu 07:10:55 AM 43.5167 -79.7500 278° West 450 518 34,000  Level Toronto Center
Thu 07:11:55 AM 43.5500 -79.9167 285° West 450 518 34,000  Level Toronto Center
Thu 07:12:55 AM 43.5833 -80.0667 287° West 440 506 34,000  Level Toronto Center
Thu 07:13:55 AM 43.6000 -80.2500 277° West 440 506 34,000  Level Toronto Center
Thu 07:14:55 AM 43.6333 -80.4167 286° West 450 518 34,000  Level Toronto Center
Thu 07:15:55 AM 43.6500 -80.5833 278° West 440 506 34,000  Level Toronto Center
Thu 07:16:55 AM 43.6833 -80.7333 287° West 450 518 34,000  Level Toronto Center
Thu 07:17:55 AM 43.7000 -80.9167 277° West 450 518 34,000  Level Toronto Center
Thu 07:18:55 AM 43.7167 -81.0833 278° West 450 518 34,000  Level Toronto Center
Thu 07:19:55 AM 43.7500 -81.2500 286° West 450 518 34,000  Level Toronto Center
Thu 07:20:55 AM 43.7833 -81.4167 286° West 450 518 34,000  Level Toronto Center
Thu 07:21:55 AM 43.8000 -81.6000 277° West 440 506 34,000  Level Toronto Center
Thu 07:22:55 AM 43.8333 -81.7667 286° West 440 506 34,000  Level Toronto Center
Thu 07:23:55 AM 43.8500 -81.9167 279° West 440 506 34,000  Level Toronto Center
Thu 07:24:55 AM 43.8667 -82.0833 278° West 440 506 34,000  Level Toronto Center
Thu 07:25:55 AM 43.8833 -82.2500 278° West 440 506 34,000  Level Toronto Center
Thu 07:26:56 AM 43.9247 -82.4167 289° West 443 510 34,000  Level Minneapolis Center
Thu 07:27:57 AM 43.9461 -82.5836 280° West 441 507 34,000  Level Minneapolis Center
Thu 07:28:58 AM 43.9689 -82.7508 281° West 442 509 34,000  Level Minneapolis Center
Thu 07:30:10 AM 43.9997 -82.9839 280° West 440 506 34,000  Level Minneapolis Center
Thu 07:31:11 AM 44.0214 -83.1506 280° West 440 506 34,000  Level Minneapolis Center
Thu 07:32:12 AM 44.0433 -83.3153 281° West 437 503 34,000  Level Minneapolis Center
Thu 07:33:13 AM 44.0636 -83.4819 280° West 437 503 34,000  Level Minneapolis Center
Thu 07:34:14 AM 44.0853 -83.6450 281° West 433 498 34,000  Level Minneapolis Center
Thu 07:35:15 AM 44.1053 -83.8067 280° West 427 491 34,000  Level Minneapolis Center
Thu 07:36:15 AM 44.1253 -83.9672 280° West 424 488 34,000  Level Minneapolis Center
Thu 07:37:16 AM 44.1439 -84.1261 279° West 418 481 34,000  Level Minneapolis Center
Thu 07:38:17 AM 44.1633 -84.2869 280° West 419 482 34,000  Level Minneapolis Center
Thu 07:39:18 AM 44.1825 -84.4486 279° West 424 488 34,000  Level Minneapolis Center
Thu 07:40:19 AM 44.2019 -84.6131 279° West 428 493 34,000  Level Minneapolis Center
Thu 07:41:20 AM 44.2228 -84.7783 280° West 431 496 34,000  Level Minneapolis Center
Thu 07:42:21 AM 44.2408 -84.9456 279° West 434 499 34,000  Level Minneapolis Center
Thu 07:43:22 AM 44.2603 -85.1153 279° West 438 504 34,000  Level Minneapolis Center
Thu 07:44:23 AM 44.2783 -85.2850 279° West 441 507 34,000  Level Minneapolis Center
Thu 07:45:24 AM 44.2989 -85.4831 278° West 436 502 34,000  Level Minneapolis Center
Thu 07:46:25 AM 44.3211 -85.6508 281° West 436 502 34,000  Level Minneapolis Center
Thu 07:47:26 AM 44.3431 -85.8242 280° West 448 516 34,000  Level Minneapolis Center
Thu 07:48:27 AM 44.3658 -86.0039 280° West 464 534 34,000  Level Minneapolis Center
Thu 07:49:28 AM 44.3869 -86.1806 280° West 460 529 34,000  Level Minneapolis Center
Thu 07:50:29 AM 44.4075 -86.3558 279° West 455 524 34,000  Level Minneapolis Center
Thu 07:51:30 AM 44.4292 -86.5331 280° West 459 528 34,000 -98 Level Minneapolis Center
Thu 07:52:31 AM 44.4497 -86.7125 279° West 463 533 33,800 -492 Descending Minneapolis Center
Thu 07:53:32 AM 44.4661 -86.8547 279° West 463 533 33,000 -885 Descending Minneapolis Center
Thu 07:54:33 AM 44.4903 -87.0614 279° West 449 517 32,000 -492 Descending Minneapolis Center
Thu 07:55:34 AM 44.5097 -87.2325 279° West 446 513 32,000  Level Minneapolis Center
Thu 07:56:35 AM 44.5289 -87.4053 279° West 448 516 32,000  Level Minneapolis Center
Thu 07:57:36 AM 44.5478 -87.5811 279° West 455 524 32,000  Level Minneapolis Center
Thu 07:58:37 AM 44.5661 -87.7575 278° West 458 527 32,000  Level Minneapolis Center
Thu 07:59:38 AM 44.5864 -87.9586 278° West 454 522 32,000  Level Minneapolis Center
Thu 08:00:40 AM 44.6044 -88.1322 278° West 453 521 32,000  Level Minneapolis Center
Thu 08:01:41 AM 44.6231 -88.3036 279° West 445 512 32,000  Level Minneapolis Center
Thu 08:02:42 AM 44.6392 -88.4742 278° West 442 509 32,000  Level Minneapolis Center
Thu 08:03:43 AM 44.6569 -88.6439 278° West 441 507 32,000  Level Minneapolis Center
Thu 08:04:44 AM 44.6731 -88.8172 278° West 446 513 32,000  Level Minneapolis Center
Thu 08:05:45 AM 44.6897 -88.9928 278° West 452 520 32,000  Level Minneapolis Center
Thu 08:06:47 AM 44.7061 -89.1681 278° West 453 521 32,000  Level Minneapolis Center
Thu 08:07:48 AM 44.7250 -89.3706 278° West 448 516 32,000  Level Minneapolis Center
Thu 08:08:49 AM 44.7406 -89.5428 277° West 446 513 32,000  Level Minneapolis Center
Thu 08:09:50 AM 44.7553 -89.7156 277° West 445 512 32,000  Level Minneapolis Center
Thu 08:10:52 AM 44.7708 -89.8878 277° West 445 512 32,000  Level Minneapolis Center
Thu 08:11:53 AM 44.7864 -90.0606 277° West 447 514 32,000  Level Minneapolis Center
Thu 08:12:54 AM 44.8006 -90.2344 277° West 447 514 32,000  Level Minneapolis Center
Thu 08:13:55 AM 44.8150 -90.4050 277° West 440 506 32,000 -344 Level Minneapolis Center
Thu 08:14:56 AM 44.8281 -90.5653 277° West 437 503 31,300 -1,561 Descending Minneapolis Center
Thu 08:15:58 AM 44.8439 -90.7642 276° West 428 493 28,800 -2,195 Descending Minneapolis Center
Thu 08:16:59 AM 44.8561 -90.9281 276° West 422 486 26,800 -1,918 Descending Minneapolis Center
Thu 08:18:00 AM 44.8700 -91.0853 277° West 412 474 24,900 -1,902 Descending Minneapolis Center
Thu 08:19:02 AM 44.8950 -91.2364 283° West 401 461 22,900 -1,951 Descending Minneapolis Center
Thu 08:20:03 AM 44.9169 -91.3864 282° West 395 455 20,900 -1,918 Descending Minneapolis Center
Thu 08:21:04 AM 44.9394 -91.5331 282° West 389 448 19,000 -1,525 Descending Minneapolis Center
Thu 08:22:05 AM 44.9628 -91.6786 283° West 383 441 17,800 -1,230 Descending Minneapolis Center
Thu 08:23:06 AM 44.9783 -91.7883 281° West 367 422 16,500 -1,805 Descending Minneapolis Center
Thu 08:24:08 AM 45.0061 -91.9786 282° West 354 407 14,100 -2,000 Descending Minneapolis Center
Thu 08:25:09 AM 45.0253 -92.1158 281° West 359 413 12,400 -1,512 Descending Minneapolis Center
Thu 08:26:11 AM 45.0431 -92.2478 281° West 346 398 11,000 -683 Descending Minneapolis Center
Thu 08:27:12 AM 45.0275 -92.3753 260° West 339 390 11,000 -197 Level Minneapolis Center
Thu 08:28:13 AM 44.9797 -92.4806 237° Southwest 319 367 10,600 -780 Descending Minneapolis Center
Thu 08:29:15 AM 44.9369 -92.5728 237° Southwest 286 329 9,400 -1,366 Descending Minneapolis Center
Thu 08:30:16 AM 44.8936 -92.6644 236° Southwest 283 326 7,800 -1,268 Descending Minneapolis Center
Thu 08:31:18 AM 44.8478 -92.7494 233° Southwest 274 315 6,800 -1,244 Descending Minneapolis Center
Thu 08:32:31 AM 44.7747 -92.8244 216° Southwest 282 325 5,000 -1,209 Descending Minneapolis Center
Thu 08:33:32 AM 44.7356 -92.8883 229° Southwest 232 267 4,100 -488 Descending Minneapolis Center
Thu 08:34:34 AM 44.7706 -92.9450 311° West 154 177 4,000 -48 Descending Minneapolis Center
Thu 08:35:36 AM 44.7947 -92.9944 305° West 154 177 4,000 -195 Level Minneapolis Center
Thu 08:36:37 AM 44.8158 -93.0442 301° West 149 171 3,600 -585 Descending Minneapolis Center
Thu 08:37:39 AM 44.8350 -93.0872 302° West 133 153 2,800 -774 Descending Minneapolis Center

Login

Don't have an account? Register now (free) for customized features, flight alerts, and more!